createdAt,value
2023-04-10T00:00:57.403Z,72.26
2023-04-10T00:03:24.967Z,72.48
2023-04-10T00:05:54.578Z,72.49
2023-04-10T00:08:25.971Z,72.62
2023-04-10T00:10:54.541Z,72.35
2023-04-10T00:13:21.163Z,72.60
2023-04-10T00:15:47.975Z,72.75
2023-04-10T00:18:14.609Z,72.72
2023-04-10T00:20:41.897Z,73.26
2023-04-10T00:23:08.599Z,72.55
2023-04-10T00:25:35.426Z,72.75
2023-04-10T00:28:02.060Z,72.87
2023-04-10T00:30:28.706Z,72.83
2023-04-10T00:32:55.412Z,72.65
2023-04-10T00:35:22.105Z,72.69
2023-04-10T00:37:50.338Z,72.41
2023-04-10T00:40:17.012Z,72.41
2023-04-10T00:42:43.683Z,72.74
2023-04-10T00:45:10.868Z,72.23
2023-04-10T00:47:37.807Z,72.07
2023-04-10T00:50:05.429Z,72.14
2023-04-10T00:52:32.386Z,72.05
2023-04-10T00:54:59.052Z,71.87
2023-04-10T00:57:27.169Z,72.44
2023-04-10T00:59:54.087Z,72.32
2023-04-10T01:02:21.000Z,72.16
2023-04-10T01:04:47.887Z,72.23
2023-04-10T01:07:56.017Z,72.32
2023-04-10T01:10:34.480Z,72.18
2023-04-10T01:13:23.265Z,72.12
2023-04-10T01:15:54.754Z,70.88
2023-04-10T01:18:39.819Z,71.87
2023-04-10T01:21:09.350Z,71.24
2023-04-10T01:23:51.307Z,71.25
2023-04-10T01:26:18.105Z,71.59
2023-04-10T01:29:07.244Z,71.58
2023-04-10T01:31:37.821Z,70.81
2023-04-10T01:34:25.647Z,70.48
2023-04-10T01:36:55.543Z,70.66
2023-04-10T01:39:22.737Z,70.07
2023-04-10T01:41:51.944Z,70.51
2023-04-10T01:44:19.095Z,70.46
2023-04-10T01:46:46.521Z,70.83
2023-04-10T01:49:13.279Z,70.83
2023-04-10T01:51:39.899Z,70.60
2023-04-10T01:54:07.224Z,69.54
2023-04-10T01:56:33.995Z,69.93
2023-04-10T01:59:00.655Z,69.87
2023-04-10T02:01:30.123Z,69.91
2023-04-10T02:03:58.690Z,69.93
2023-04-10T02:07:03.669Z,69.88
2023-04-10T02:09:47.988Z,69.64
2023-04-10T02:12:50.590Z,69.52
2023-04-10T02:15:17.351Z,69.65
2023-04-10T02:17:44.084Z,69.44
2023-04-10T02:20:10.833Z,70.01
2023-04-10T02:22:37.485Z,69.51
2023-04-10T02:25:04.819Z,69.88
2023-04-10T02:27:33.135Z,69.86
2023-04-10T02:30:00.188Z,69.92
2023-04-10T02:32:27.428Z,69.71
2023-04-10T02:34:54.230Z,69.53
2023-04-10T02:37:20.897Z,70.26
2023-04-10T02:39:47.605Z,70.61
2023-04-10T02:42:14.312Z,70.36
2023-04-10T02:44:41.272Z,70.65
2023-04-10T02:47:08.237Z,70.90
2023-04-10T02:49:35.108Z,71.03
2023-04-10T02:52:02.343Z,71.13
2023-04-10T02:54:29.022Z,71.12
2023-04-10T02:56:57.493Z,71.39
2023-04-10T02:59:24.145Z,71.11
2023-04-10T03:01:51.013Z,71.44
2023-04-10T03:04:18.013Z,71.57
2023-04-10T03:06:44.774Z,71.69
2023-04-10T03:09:11.410Z,72.06
2023-04-10T03:11:38.198Z,72.08
2023-04-10T03:14:04.984Z,71.52
2023-04-10T03:16:31.746Z,71.77
2023-04-10T03:18:58.511Z,72.13
2023-04-10T03:21:25.173Z,72.09
2023-04-10T03:23:52.598Z,72.75
2023-04-10T03:26:19.452Z,72.49
2023-04-10T03:28:46.086Z,72.08
2023-04-10T03:31:12.785Z,72.29
2023-04-10T03:33:39.553Z,72.44
2023-04-10T03:36:06.936Z,72.16
2023-04-10T03:38:33.600Z,72.65
2023-04-10T03:41:00.226Z,72.64
2023-04-10T03:43:26.893Z,72.70
2023-04-10T03:45:53.522Z,72.81
2023-04-10T03:48:20.142Z,72.41
2023-04-10T03:50:46.813Z,72.63
2023-04-10T03:53:13.519Z,72.62
2023-04-10T03:55:41.173Z,72.57
2023-04-10T03:58:08.292Z,72.61
2023-04-10T04:00:34.949Z,72.55
2023-04-10T04:03:03.280Z,72.63
2023-04-10T04:05:30.956Z,72.50
2023-04-10T04:07:57.637Z,72.63
2023-04-10T04:10:24.410Z,72.79
2023-04-10T04:12:51.132Z,72.66
2023-04-10T04:15:17.883Z,72.78
2023-04-10T04:17:46.341Z,72.57
2023-04-10T04:20:13.102Z,72.53
2023-04-10T04:22:39.775Z,72.36
2023-04-10T04:25:10.749Z,71.83
2023-04-10T04:27:37.713Z,71.80
2023-04-10T04:30:04.981Z,71.87
2023-04-10T04:32:31.676Z,72.12
2023-04-10T04:34:58.344Z,71.20
2023-04-10T04:37:25.070Z,71.15
2023-04-10T04:39:51.724Z,70.80
2023-04-10T04:42:18.459Z,70.57
2023-04-10T04:44:45.147Z,71.08
2023-04-10T04:47:11.959Z,71.13
2023-04-10T04:49:38.673Z,70.94
2023-04-10T04:52:05.663Z,70.21
2023-04-10T04:54:32.331Z,69.95
2023-04-10T04:56:58.984Z,68.71
2023-04-10T04:59:25.740Z,69.12
2023-04-10T05:01:52.485Z,67.07
2023-04-10T05:04:20.721Z,67.16
2023-04-10T05:06:47.467Z,67.33
2023-04-10T05:09:14.137Z,67.50
2023-04-10T05:11:41.127Z,65.69
2023-04-10T05:14:07.899Z,62.61
2023-04-10T05:16:34.563Z,61.12
2023-04-10T05:19:01.396Z,60.15
2023-04-10T05:21:28.037Z,58.25
2023-04-10T05:23:54.819Z,58.41
2023-04-10T05:26:21.495Z,58.20
2023-04-10T05:28:48.235Z,57.38
2023-04-10T05:31:14.931Z,55.73
2023-04-10T05:33:41.655Z,55.57
2023-04-10T05:36:08.678Z,54.33
2023-04-10T05:38:35.973Z,52.74
2023-04-10T05:41:02.610Z,52.03
2023-04-10T05:43:29.217Z,50.37
2023-04-10T05:45:56.136Z,50.63
2023-04-10T05:48:26.188Z,51.41
2023-04-10T05:50:52.930Z,51.80
2023-04-10T05:53:19.935Z,50.90
2023-04-10T05:55:51.424Z,51.50
2023-04-10T05:58:18.081Z,48.69
2023-04-10T06:00:44.742Z,48.53
2023-04-10T06:03:11.516Z,46.71
2023-04-10T06:05:38.242Z,49.61
2023-04-10T06:08:04.986Z,51.61
2023-04-10T06:10:32.133Z,49.47
2023-04-10T06:12:58.770Z,49.48
2023-04-10T06:15:25.389Z,49.34
2023-04-10T06:17:52.095Z,49.21
2023-04-10T06:20:18.925Z,49.45
2023-04-10T06:22:45.960Z,49.83
2023-04-10T06:25:12.820Z,50.24
2023-04-10T06:27:39.544Z,49.21
2023-04-10T06:30:06.953Z,50.78
2023-04-10T06:32:33.648Z,49.10
2023-04-10T06:35:00.729Z,49.58
2023-04-10T06:37:33.359Z,48.84
2023-04-10T06:40:07.847Z,47.70
2023-04-10T06:42:34.851Z,47.75
2023-04-10T06:45:01.491Z,48.08
2023-04-10T06:47:28.322Z,49.58
2023-04-10T06:49:54.981Z,48.55
2023-04-10T06:52:21.642Z,47.84
2023-04-10T06:54:48.358Z,47.45
2023-04-10T06:57:16.089Z,47.48
2023-04-10T06:59:42.998Z,46.28
2023-04-10T07:02:09.744Z,48.37
2023-04-10T07:04:36.841Z,46.46
2023-04-10T07:07:03.850Z,46.98
2023-04-10T07:09:30.791Z,46.89
2023-04-10T07:11:57.478Z,47.99
2023-04-10T07:14:24.152Z,47.93
2023-04-10T07:16:51.324Z,47.89
2023-04-10T07:19:18.051Z,48.79
2023-04-10T07:21:44.754Z,48.13
2023-04-10T07:24:11.619Z,47.90
2023-04-10T07:26:38.257Z,47.81
2023-04-10T07:29:04.868Z,49.08
2023-04-10T07:31:31.563Z,48.47
2023-04-10T07:33:58.280Z,48.51
2023-04-10T07:36:24.961Z,48.75
2023-04-10T07:38:51.703Z,49.19
2023-04-10T07:41:18.566Z,49.22
2023-04-10T07:43:46.109Z,49.28
2023-04-10T07:46:12.786Z,49.27
2023-04-10T07:48:39.478Z,47.79
2023-04-10T07:51:09.285Z,48.14
2023-04-10T07:53:36.830Z,48.81
2023-04-10T07:56:03.564Z,48.42
2023-04-10T07:58:31.154Z,46.60
2023-04-10T08:00:57.884Z,48.52
2023-04-10T08:03:24.761Z,48.25
2023-04-10T08:05:51.762Z,48.48
2023-04-10T08:08:18.430Z,48.23
2023-04-10T08:10:45.158Z,47.90
2023-04-10T08:13:11.802Z,49.16
2023-04-10T08:15:38.573Z,48.95
2023-04-10T08:18:05.530Z,49.59
2023-04-10T08:20:36.958Z,46.98
2023-04-10T08:23:17.338Z,46.84
2023-04-10T08:25:46.842Z,46.86
2023-04-10T08:28:13.549Z,47.93
2023-04-10T08:30:40.177Z,48.17
2023-04-10T08:33:06.878Z,47.26
2023-04-10T08:35:33.570Z,45.59
2023-04-10T08:38:12.250Z,47.02
2023-04-10T08:40:40.603Z,47.18
2023-04-10T08:43:07.242Z,47.31
2023-04-10T08:45:33.959Z,48.81
2023-04-10T08:48:02.680Z,47.16
2023-04-10T08:50:29.807Z,48.17
2023-04-10T08:52:56.530Z,49.29
2023-04-10T08:55:23.271Z,48.73
2023-04-10T08:58:00.571Z,48.16
2023-04-10T09:00:28.600Z,49.17
2023-04-10T09:02:58.343Z,47.54
2023-04-10T09:05:28.610Z,48.83
2023-04-10T09:07:55.341Z,48.28
2023-04-10T09:10:22.094Z,48.32
2023-04-10T09:12:48.838Z,47.87
2023-04-10T09:15:15.778Z,47.25
2023-04-10T09:17:58.651Z,48.60
2023-04-10T09:20:26.121Z,47.13
2023-04-10T09:22:52.994Z,47.77
2023-04-10T09:25:40.718Z,50.14
2023-04-10T09:28:08.502Z,46.77
2023-04-10T09:30:42.362Z,47.92
2023-04-10T09:33:27.487Z,48.73
2023-04-10T09:35:54.440Z,49.67
2023-04-10T09:38:21.666Z,50.30
2023-04-10T09:40:48.459Z,50.80
2023-04-10T09:43:22.076Z,51.09
2023-04-10T09:45:56.588Z,50.39
2023-04-10T09:48:24.240Z,49.49
2023-04-10T09:50:51.458Z,49.90
2023-04-10T09:53:19.693Z,48.75
2023-04-10T09:55:47.354Z,48.10
2023-04-10T09:58:14.244Z,50.19
2023-04-10T10:00:47.251Z,50.75
2023-04-10T10:03:15.205Z,50.73
2023-04-10T10:05:48.605Z,51.13
2023-04-10T10:08:15.830Z,51.86
2023-04-10T10:10:50.937Z,51.72
2023-04-10T10:13:32.651Z,51.84
2023-04-10T10:16:20.680Z,52.20
2023-04-10T10:19:08.407Z,52.27
2023-04-10T10:21:35.188Z,52.66
2023-04-10T10:24:01.913Z,53.27
2023-04-10T10:26:32.537Z,53.65
2023-04-10T10:28:59.266Z,53.97
2023-04-10T10:31:26.020Z,52.44
2023-04-10T10:33:52.996Z,52.64
2023-04-10T10:36:20.336Z,52.56
2023-04-10T10:39:19.222Z,53.21
2023-04-10T10:42:24.478Z,53.15
2023-04-10T10:45:10.873Z,53.68
2023-04-10T10:47:49.802Z,53.19
2023-04-10T10:50:16.457Z,54.16
2023-04-10T10:52:57.407Z,52.92
2023-04-10T10:55:36.772Z,53.62
2023-04-10T10:58:09.799Z,53.72
2023-04-10T11:00:51.820Z,54.38
2023-04-10T11:03:18.499Z,53.35
2023-04-10T11:05:59.168Z,52.77
2023-04-10T11:08:44.112Z,52.30
2023-04-10T11:11:10.827Z,52.81
2023-04-10T11:13:41.183Z,50.46
2023-04-10T11:16:10.570Z,50.78
2023-04-10T11:18:47.321Z,51.57
2023-04-10T11:21:22.853Z,51.07
2023-04-10T11:23:58.433Z,52.05
2023-04-10T11:26:38.257Z,51.37
2023-04-10T11:29:20.023Z,52.63
2023-04-10T11:31:59.836Z,51.55
2023-04-10T11:34:30.968Z,51.43
2023-04-10T11:36:57.669Z,51.42
2023-04-10T11:39:24.309Z,52.79
2023-04-10T11:41:51.917Z,52.56
2023-04-10T11:44:26.529Z,52.86
2023-04-10T11:46:53.252Z,53.50
2023-04-10T11:49:21.444Z,53.49
2023-04-10T11:51:48.702Z,54.64
2023-04-10T11:54:19.859Z,52.49
2023-04-10T11:56:58.227Z,52.65
2023-04-10T11:59:25.087Z,52.72
2023-04-10T12:01:54.293Z,53.60
2023-04-10T12:04:22.365Z,52.09
2023-04-10T12:06:52.842Z,52.05
2023-04-10T12:09:20.419Z,51.74
2023-04-10T12:11:53.243Z,51.79
2023-04-10T12:14:20.975Z,53.62
2023-04-10T12:16:47.887Z,52.67
2023-04-10T12:19:14.985Z,52.73
2023-04-10T12:21:44.365Z,53.84
2023-04-10T12:24:11.322Z,53.38
2023-04-10T12:26:38.081Z,54.30
2023-04-10T12:29:06.436Z,52.75
2023-04-10T12:31:35.558Z,53.29
2023-04-10T12:34:03.059Z,53.55
2023-04-10T12:36:30.571Z,54.17
2023-04-10T12:38:58.123Z,54.22
2023-04-10T12:41:26.381Z,54.24
2023-04-10T12:43:53.710Z,52.11
2023-04-10T12:46:28.357Z,52.28
2023-04-10T12:48:56.147Z,52.12
2023-04-10T12:51:50.116Z,52.34
2023-04-10T12:54:30.517Z,53.39
2023-04-10T12:56:57.807Z,51.67
2023-04-10T12:59:25.034Z,53.37
2023-04-10T13:01:51.737Z,52.23
2023-04-10T13:04:18.950Z,53.07
2023-04-10T13:06:46.047Z,53.08
2023-04-10T13:09:13.405Z,53.45
2023-04-10T13:11:40.709Z,53.60
2023-04-10T13:14:07.557Z,52.93
2023-04-10T13:16:34.486Z,52.97
2023-04-10T13:19:01.639Z,53.28
2023-04-10T13:21:28.720Z,53.40
2023-04-10T13:23:58.582Z,53.38
2023-04-10T13:26:25.510Z,53.51
2023-04-10T13:28:52.204Z,52.25
2023-04-10T13:31:18.942Z,52.77
2023-04-10T13:33:48.188Z,54.03
2023-04-10T13:36:15.460Z,53.77
2023-04-10T13:38:42.198Z,52.91
2023-04-10T13:41:09.017Z,54.37
2023-04-10T13:43:36.506Z,54.22
2023-04-10T13:46:03.225Z,55.24
2023-04-10T13:48:37.211Z,55.20
2023-04-10T13:51:06.810Z,54.75
2023-04-10T13:53:33.498Z,54.36
2023-04-10T13:56:00.343Z,55.24
2023-04-10T13:58:30.756Z,55.13
2023-04-10T14:00:57.507Z,55.19
2023-04-10T14:03:24.214Z,54.51
2023-04-10T14:05:52.711Z,53.78
2023-04-10T14:08:19.577Z,55.28
2023-04-10T14:10:50.721Z,56.00
2023-04-10T14:13:17.880Z,55.10
2023-04-10T14:15:44.950Z,56.83
2023-04-10T14:18:11.645Z,55.66
2023-04-10T14:20:39.054Z,55.86
2023-04-10T14:23:05.858Z,55.97
2023-04-10T14:25:32.517Z,55.42
2023-04-10T14:27:59.831Z,55.55
2023-04-10T14:30:31.016Z,56.04
2023-04-10T14:32:57.980Z,55.54
2023-04-10T14:35:24.734Z,55.86
2023-04-10T14:37:51.432Z,56.08
2023-04-10T14:40:18.102Z,55.87
2023-04-10T14:42:45.949Z,55.20
2023-04-10T14:45:12.615Z,54.81
2023-04-10T14:47:39.367Z,55.68
2023-04-10T14:50:06.902Z,54.84
2023-04-10T14:52:33.623Z,55.05
2023-04-10T14:55:00.362Z,54.26
2023-04-10T14:57:27.151Z,54.57
2023-04-10T14:59:53.796Z,53.82
2023-04-10T15:02:21.003Z,54.08
2023-04-10T15:04:47.732Z,55.20
2023-04-10T15:07:14.684Z,56.19
2023-04-10T15:09:41.383Z,55.36
2023-04-10T15:12:08.026Z,55.60
2023-04-10T15:14:34.775Z,55.82
2023-04-10T15:17:01.589Z,54.76
2023-04-10T15:19:28.350Z,55.81
2023-04-10T15:21:55.365Z,54.00
2023-04-10T15:24:21.984Z,54.37
2023-04-10T15:26:48.671Z,55.70
2023-04-10T15:29:15.369Z,53.49
2023-04-10T15:31:41.996Z,55.09
2023-04-10T15:34:09.283Z,56.38
2023-04-10T15:36:36.066Z,55.81
2023-04-10T15:39:06.051Z,55.96
2023-04-10T15:41:33.175Z,55.82
2023-04-10T15:43:59.963Z,56.01
2023-04-10T15:46:27.293Z,56.60
2023-04-10T15:48:54.064Z,55.97
2023-04-10T15:51:20.864Z,55.66
2023-04-10T15:53:47.453Z,55.02
2023-04-10T15:56:16.115Z,56.59
2023-04-10T15:58:42.700Z,55.57
2023-04-10T16:01:09.352Z,56.85
2023-04-10T16:03:36.174Z,56.11
2023-04-10T16:06:03.235Z,55.74
2023-04-10T16:08:30.054Z,56.15
2023-04-10T16:10:56.737Z,56.62
2023-04-10T16:13:23.404Z,56.87
2023-04-10T16:15:50.458Z,57.38
2023-04-10T16:18:17.127Z,57.26
2023-04-10T16:20:43.842Z,57.43
2023-04-10T16:23:10.553Z,57.25
2023-04-10T16:25:37.170Z,58.58
2023-04-10T16:28:08.252Z,58.63
2023-04-10T16:30:35.601Z,58.89
2023-04-10T16:33:03.006Z,59.61
2023-04-10T16:35:30.166Z,60.03
2023-04-10T16:37:56.795Z,61.02
2023-04-10T16:40:23.544Z,60.45
2023-04-10T16:42:50.286Z,60.75
2023-04-10T16:45:16.976Z,61.21
2023-04-10T16:47:44.619Z,60.50
2023-04-10T16:50:11.696Z,60.42
2023-04-10T16:52:38.385Z,61.28
2023-04-10T16:55:05.468Z,61.39
2023-04-10T16:57:32.928Z,62.62
2023-04-10T16:59:59.929Z,62.70
2023-04-10T17:02:27.086Z,62.93
2023-04-10T17:04:57.276Z,62.33
2023-04-10T17:07:24.180Z,61.38
2023-04-10T17:09:51.057Z,61.48
2023-04-10T17:12:17.883Z,61.39
2023-04-10T17:14:44.658Z,62.05
2023-04-10T17:17:11.446Z,61.86
2023-04-10T17:19:38.707Z,61.91
2023-04-10T17:22:13.798Z,61.36
2023-04-10T17:24:40.468Z,62.88
2023-04-10T17:27:07.163Z,63.37
2023-04-10T17:29:38.657Z,63.00
2023-04-10T17:32:06.716Z,63.36
2023-04-10T17:34:33.720Z,64.01
2023-04-10T17:37:00.690Z,64.20
2023-04-10T17:39:27.947Z,64.47
2023-04-10T17:41:54.686Z,63.94
2023-04-10T17:44:21.373Z,64.13
2023-04-10T17:46:48.306Z,63.41
2023-04-10T17:49:15.012Z,63.22
2023-04-10T17:51:42.029Z,63.07
2023-04-10T17:54:08.889Z,63.09
2023-04-10T17:56:35.666Z,64.23
2023-04-10T17:59:02.887Z,63.97
2023-04-10T18:01:31.017Z,64.35
2023-04-10T18:03:59.161Z,63.84
2023-04-10T18:06:26.428Z,63.36
2023-04-10T18:08:53.480Z,63.34
2023-04-10T18:11:20.396Z,63.62
2023-04-10T18:13:47.080Z,64.06
2023-04-10T18:16:13.934Z,63.69
2023-04-10T18:18:42.338Z,63.45
2023-04-10T18:21:10.773Z,63.76
2023-04-10T18:23:38.040Z,64.88
2023-04-10T18:26:04.690Z,64.12
2023-04-10T18:28:31.315Z,64.64
2023-04-10T18:30:58.553Z,64.90
2023-04-10T18:33:25.878Z,64.84
2023-04-10T18:35:57.227Z,65.06
2023-04-10T18:38:24.564Z,65.23
2023-04-10T18:40:54.220Z,64.38
2023-04-10T18:43:20.916Z,64.34
2023-04-10T18:45:47.657Z,64.53
2023-04-10T18:48:14.328Z,64.26
2023-04-10T18:50:41.143Z,64.30
2023-04-10T18:53:07.824Z,63.92
2023-04-10T18:55:34.413Z,62.74
2023-04-10T18:58:01.066Z,63.07
2023-04-10T19:00:27.760Z,62.40
2023-04-10T19:02:55.300Z,61.69
2023-04-10T19:05:22.057Z,62.06
2023-04-10T19:08:00.565Z,62.85
2023-04-10T19:10:27.929Z,62.21
2023-04-10T19:12:56.231Z,61.64
2023-04-10T19:15:23.760Z,63.01
2023-04-10T19:17:53.935Z,62.93
2023-04-10T19:20:52.398Z,62.23
2023-04-10T19:23:07.747Z,62.64
2023-04-10T19:25:34.449Z,63.20
2023-04-10T19:28:01.227Z,63.12
2023-04-10T19:30:28.507Z,63.26
2023-04-10T19:32:55.893Z,61.53
2023-04-10T19:35:22.790Z,63.06
2023-04-10T19:37:49.905Z,63.37
2023-04-10T19:40:18.119Z,63.81
2023-04-10T19:42:44.959Z,64.34
2023-04-10T19:45:12.387Z,65.42
2023-04-10T19:47:39.077Z,64.24
2023-04-10T19:50:06.093Z,63.63
2023-04-10T19:52:32.744Z,64.60
2023-04-10T19:54:59.508Z,62.26
2023-04-10T19:57:26.159Z,62.62
2023-04-10T19:59:52.830Z,63.41
2023-04-10T20:02:19.651Z,63.42
2023-04-10T20:04:48.541Z,62.35
2023-04-10T20:07:15.492Z,62.28
2023-04-10T20:09:42.187Z,62.86
2023-04-10T20:12:09.244Z,63.16
2023-04-10T20:14:35.882Z,63.35
2023-04-10T20:17:02.570Z,62.80
2023-04-10T20:19:29.374Z,63.34
2023-04-10T20:21:56.089Z,62.99
2023-04-10T20:24:22.833Z,62.88
2023-04-10T20:26:49.505Z,62.65
2023-04-10T20:29:16.340Z,62.37
2023-04-10T20:31:43.131Z,62.71
2023-04-10T20:34:09.837Z,63.69
2023-04-10T20:36:36.608Z,63.72
2023-04-10T20:39:03.236Z,64.00
2023-04-10T20:41:29.896Z,64.25
2023-04-10T20:43:57.504Z,64.00
2023-04-10T20:46:27.078Z,64.57
2023-04-10T20:48:59.203Z,64.46
2023-04-10T20:51:27.450Z,64.43
2023-04-10T20:53:54.259Z,64.64
2023-04-10T20:56:24.928Z,64.86
2023-04-10T20:58:56.888Z,65.26
2023-04-10T21:01:23.571Z,65.29
2023-04-10T21:03:50.602Z,65.07
2023-04-10T21:06:18.275Z,66.12
2023-04-10T21:08:44.939Z,65.44
2023-04-10T21:11:11.555Z,64.50
2023-04-10T21:13:38.632Z,64.92
2023-04-10T21:16:06.445Z,65.11
2023-04-10T21:18:33.139Z,65.44
2023-04-10T21:20:59.766Z,65.86
2023-04-10T21:23:26.467Z,65.80
2023-04-10T21:25:53.167Z,66.53
2023-04-10T21:28:19.915Z,66.47
2023-04-10T21:30:46.664Z,66.29
2023-04-10T21:33:13.472Z,65.82
2023-04-10T21:35:42.728Z,65.25
2023-04-10T21:38:09.489Z,65.88
2023-04-10T21:40:36.244Z,65.84
2023-04-10T21:43:03.312Z,64.82
2023-04-10T21:45:34.726Z,64.46
2023-04-10T21:48:01.834Z,65.28
2023-04-10T21:50:28.636Z,65.60
2023-04-10T21:52:55.394Z,66.37
2023-04-10T21:55:22.054Z,66.67
2023-04-10T21:57:48.758Z,67.10
2023-04-10T22:00:16.954Z,67.41
2023-04-10T22:02:44.405Z,67.31
2023-04-10T22:05:12.702Z,67.16
2023-04-10T22:07:39.334Z,67.56
2023-04-10T22:10:07.942Z,67.60
2023-04-10T22:12:34.550Z,65.85
2023-04-10T22:15:01.218Z,66.09
2023-04-10T22:17:27.916Z,67.19
2023-04-10T22:19:54.621Z,67.55
2023-04-10T22:22:21.329Z,67.14
2023-04-10T22:24:47.976Z,65.06
2023-04-10T22:27:14.610Z,65.65
2023-04-10T22:29:45.303Z,66.51
2023-04-10T22:32:14.294Z,66.31
2023-04-10T22:34:41.073Z,66.12
2023-04-10T22:37:07.752Z,65.96
2023-04-10T22:39:34.427Z,65.81
2023-04-10T22:42:01.027Z,66.19
2023-04-10T22:44:27.686Z,66.33
2023-04-10T22:46:54.350Z,65.96
2023-04-10T22:49:21.128Z,67.12
2023-04-10T22:51:47.825Z,66.61
2023-04-10T22:54:16.019Z,67.09
2023-04-10T22:56:44.200Z,67.23
2023-04-10T22:59:10.981Z,67.83
2023-04-10T23:01:37.830Z,68.15
2023-04-10T23:04:04.547Z,69.17
2023-04-10T23:06:32.530Z,69.43
2023-04-10T23:08:59.200Z,70.00
2023-04-10T23:11:25.892Z,70.26
2023-04-10T23:13:52.598Z,70.50
2023-04-10T23:16:19.311Z,70.43
2023-04-10T23:18:46.043Z,71.32
2023-04-10T23:21:12.660Z,71.80
2023-04-10T23:23:39.328Z,72.03
2023-04-10T23:26:06.380Z,72.96
2023-04-10T23:28:33.002Z,72.79
2023-04-10T23:30:59.718Z,72.32
2023-04-10T23:33:26.372Z,72.78
2023-04-10T23:35:53.065Z,71.64
2023-04-10T23:38:19.850Z,72.16
2023-04-10T23:40:46.508Z,72.69
2023-04-10T23:43:13.201Z,73.35
2023-04-10T23:45:39.883Z,73.71
2023-04-10T23:48:07.513Z,74.09
2023-04-10T23:50:34.218Z,74.31
2023-04-10T23:53:01.982Z,74.95
2023-04-10T23:55:28.615Z,75.11
2023-04-10T23:57:55.247Z,75.16
